sensor_id;sensor_type;location;lat;lon;timestamp;P1;durP1;ratioP1;P2;durP2;ratioP2
19560;SDS011;9927;47.792;10.616;2023-06-14T00:02:20;8.80;;;6.15;;
19560;SDS011;9927;47.792;10.616;2023-06-14T00:04:48;8.10;;;5.90;;
19560;SDS011;9927;47.792;10.616;2023-06-14T00:07:20;8.90;;;5.75;;
19560;SDS011;9927;47.792;10.616;2023-06-14T00:09:59;7.93;;;5.80;;
19560;SDS011;9927;47.792;10.616;2023-06-14T00:12:27;9.02;;;5.30;;
19560;SDS011;9927;47.792;10.616;2023-06-14T00:14:54;8.45;;;5.32;;
19560;SDS011;9927;47.792;10.616;2023-06-14T00:17:22;8.57;;;5.60;;
19560;SDS011;9927;47.792;10.616;2023-06-14T00:19:49;8.05;;;5.88;;
19560;SDS011;9927;47.792;10.616;2023-06-14T00:22:16;5.63;;;5.05;;
19560;SDS011;9927;47.792;10.616;2023-06-14T00:24:44;11.40;;;5.90;;
19560;SDS011;9927;47.792;10.616;2023-06-14T00:27:11;9.68;;;5.82;;
19560;SDS011;9927;47.792;10.616;2023-06-14T00:29:38;9.82;;;5.90;;
19560;SDS011;9927;47.792;10.616;2023-06-14T00:32:06;7.88;;;5.97;;
19560;SDS011;9927;47.792;10.616;2023-06-14T00:34:34;5.85;;;5.20;;
19560;SDS011;9927;47.792;10.616;2023-06-14T00:37:01;9.13;;;6.13;;
19560;SDS011;9927;47.792;10.616;2023-06-14T00:39:28;9.15;;;6.13;;
19560;SDS011;9927;47.792;10.616;2023-06-14T00:41:56;9.30;;;5.72;;
19560;SDS011;9927;47.792;10.616;2023-06-14T00:44:24;10.25;;;6.22;;
19560;SDS011;9927;47.792;10.616;2023-06-14T00:46:51;11.95;;;6.55;;
19560;SDS011;9927;47.792;10.616;2023-06-14T00:49:19;11.63;;;6.18;;
19560;SDS011;9927;47.792;10.616;2023-06-14T00:51:46;9.98;;;5.93;;
19560;SDS011;9927;47.792;10.616;2023-06-14T00:54:14;8.52;;;6.18;;
19560;SDS011;9927;47.792;10.616;2023-06-14T00:56:41;9.65;;;6.00;;
19560;SDS011;9927;47.792;10.616;2023-06-14T00:59:10;8.70;;;6.07;;
19560;SDS011;9927;47.792;10.616;2023-06-14T01:01:38;7.18;;;5.53;;
19560;SDS011;9927;47.792;10.616;2023-06-14T01:04:05;9.88;;;6.05;;
19560;SDS011;9927;47.792;10.616;2023-06-14T01:12:15;9.57;;;5.85;;
19560;SDS011;9927;47.792;10.616;2023-06-14T01:14:57;8.52;;;5.95;;
19560;SDS011;9927;47.792;10.616;2023-06-14T01:17:27;8.32;;;5.28;;
19560;SDS011;9927;47.792;10.616;2023-06-14T01:19:59;9.70;;;6.03;;
19560;SDS011;9927;47.792;10.616;2023-06-14T01:22:29;10.30;;;6.13;;
19560;SDS011;9927;47.792;10.616;2023-06-14T01:24:56;10.00;;;6.30;;
19560;SDS011;9927;47.792;10.616;2023-06-14T01:27:24;7.20;;;5.70;;
19560;SDS011;9927;47.792;10.616;2023-06-14T01:29:55;9.55;;;6.28;;
19560;SDS011;9927;47.792;10.616;2023-06-14T01:32:24;8.65;;;5.80;;
19560;SDS011;9927;47.792;10.616;2023-06-14T01:34:53;9.18;;;6.40;;
19560;SDS011;9927;47.792;10.616;2023-06-14T01:37:21;8.35;;;5.85;;
19560;SDS011;9927;47.792;10.616;2023-06-14T01:39:49;10.75;;;6.10;;
19560;SDS011;9927;47.792;10.616;2023-06-14T01:42:17;10.30;;;5.95;;
19560;SDS011;9927;47.792;10.616;2023-06-14T01:44:45;9.45;;;6.05;;
19560;SDS011;9927;47.792;10.616;2023-06-14T01:47:14;8.77;;;5.82;;
19560;SDS011;9927;47.792;10.616;2023-06-14T01:49:42;6.05;;;5.47;;
19560;SDS011;9927;47.792;10.616;2023-06-14T01:52:09;9.38;;;6.53;;
19560;SDS011;9927;47.792;10.616;2023-06-14T01:54:36;9.40;;;6.47;;
19560;SDS011;9927;47.792;10.616;2023-06-14T01:57:08;10.02;;;6.50;;
19560;SDS011;9927;47.792;10.616;2023-06-14T01:59:37;9.15;;;6.80;;
19560;SDS011;9927;47.792;10.616;2023-06-14T02:02:04;12.82;;;6.57;;
19560;SDS011;9927;47.792;10.616;2023-06-14T02:04:31;11.83;;;6.50;;
19560;SDS011;9927;47.792;10.616;2023-06-14T02:06:59;10.73;;;6.30;;
19560;SDS011;9927;47.792;10.616;2023-06-14T02:09:26;6.38;;;5.88;;
19560;SDS011;9927;47.792;10.616;2023-06-14T02:11:53;11.02;;;6.45;;
19560;SDS011;9927;47.792;10.616;2023-06-14T02:14:21;9.27;;;6.00;;
19560;SDS011;9927;47.792;10.616;2023-06-14T02:16:48;6.68;;;5.72;;
19560;SDS011;9927;47.792;10.616;2023-06-14T02:19:16;12.93;;;7.32;;
19560;SDS011;9927;47.792;10.616;2023-06-14T02:21:44;7.22;;;6.15;;
19560;SDS011;9927;47.792;10.616;2023-06-14T02:24:12;10.50;;;6.72;;
19560;SDS011;9927;47.792;10.616;2023-06-14T02:26:40;6.63;;;5.88;;
19560;SDS011;9927;47.792;10.616;2023-06-14T02:29:10;10.95;;;6.25;;
19560;SDS011;9927;47.792;10.616;2023-06-14T02:31:39;11.45;;;6.80;;
19560;SDS011;9927;47.792;10.616;2023-06-14T02:34:07;8.02;;;5.90;;
19560;SDS011;9927;47.792;10.616;2023-06-14T02:36:35;9.98;;;6.50;;
19560;SDS011;9927;47.792;10.616;2023-06-14T02:39:08;8.43;;;6.05;;
19560;SDS011;9927;47.792;10.616;2023-06-14T02:41:36;8.07;;;6.30;;
19560;SDS011;9927;47.792;10.616;2023-06-14T02:44:03;8.63;;;6.20;;
19560;SDS011;9927;47.792;10.616;2023-06-14T02:46:31;9.10;;;6.60;;
19560;SDS011;9927;47.792;10.616;2023-06-14T02:48:59;8.50;;;6.35;;
19560;SDS011;9927;47.792;10.616;2023-06-14T02:51:26;6.60;;;6.00;;
19560;SDS011;9927;47.792;10.616;2023-06-14T02:53:54;9.52;;;6.88;;
19560;SDS011;9927;47.792;10.616;2023-06-14T02:56:21;8.02;;;6.38;;
19560;SDS011;9927;47.792;10.616;2023-06-14T02:58:49;10.57;;;6.93;;
19560;SDS011;9927;47.792;10.616;2023-06-14T03:01:17;13.25;;;7.55;;
19560;SDS011;9927;47.792;10.616;2023-06-14T03:03:44;8.75;;;6.45;;
19560;SDS011;9927;47.792;10.616;2023-06-14T03:06:12;6.93;;;6.07;;
19560;SDS011;9927;47.792;10.616;2023-06-14T03:08:40;9.43;;;6.82;;
19560;SDS011;9927;47.792;10.616;2023-06-14T03:11:08;8.25;;;6.20;;
19560;SDS011;9927;47.792;10.616;2023-06-14T03:13:35;9.55;;;6.70;;
19560;SDS011;9927;47.792;10.616;2023-06-14T03:16:04;9.10;;;6.73;;
19560;SDS011;9927;47.792;10.616;2023-06-14T03:18:31;7.22;;;5.88;;
19560;SDS011;9927;47.792;10.616;2023-06-14T03:21:02;9.13;;;6.77;;
19560;SDS011;9927;47.792;10.616;2023-06-14T03:23:30;8.05;;;6.32;;
19560;SDS011;9927;47.792;10.616;2023-06-14T03:25:57;9.77;;;6.45;;
19560;SDS011;9927;47.792;10.616;2023-06-14T03:28:25;8.48;;;6.05;;
19560;SDS011;9927;47.792;10.616;2023-06-14T03:30:52;9.10;;;6.10;;
19560;SDS011;9927;47.792;10.616;2023-06-14T03:33:20;8.48;;;6.22;;
19560;SDS011;9927;47.792;10.616;2023-06-14T03:35:47;9.02;;;6.05;;
19560;SDS011;9927;47.792;10.616;2023-06-14T03:38:14;6.15;;;5.65;;
19560;SDS011;9927;47.792;10.616;2023-06-14T03:40:42;17.75;;;8.45;;
19560;SDS011;9927;47.792;10.616;2023-06-14T03:43:09;12.18;;;7.28;;
19560;SDS011;9927;47.792;10.616;2023-06-14T03:45:37;10.45;;;6.80;;
19560;SDS011;9927;47.792;10.616;2023-06-14T03:48:04;7.23;;;6.43;;
19560;SDS011;9927;47.792;10.616;2023-06-14T03:50:33;19.30;;;9.15;;
19560;SDS011;9927;47.792;10.616;2023-06-14T03:53:01;13.35;;;7.50;;
19560;SDS011;9927;47.792;10.616;2023-06-14T03:55:28;10.00;;;6.70;;
19560;SDS011;9927;47.792;10.616;2023-06-14T03:58:00;9.95;;;6.50;;
19560;SDS011;9927;47.792;10.616;2023-06-14T04:00:27;21.38;;;7.90;;
19560;SDS011;9927;47.792;10.616;2023-06-14T04:02:55;12.38;;;6.95;;
19560;SDS011;9927;47.792;10.616;2023-06-14T04:05:22;12.40;;;7.33;;
19560;SDS011;9927;47.792;10.616;2023-06-14T04:07:53;11.70;;;6.70;;
19560;SDS011;9927;47.792;10.616;2023-06-14T04:10:22;14.18;;;7.47;;
19560;SDS011;9927;47.792;10.616;2023-06-14T04:12:49;8.15;;;6.10;;
19560;SDS011;9927;47.792;10.616;2023-06-14T04:15:18;8.95;;;6.32;;
19560;SDS011;9927;47.792;10.616;2023-06-14T04:17:48;8.53;;;6.60;;
19560;SDS011;9927;47.792;10.616;2023-06-14T04:20:18;12.75;;;8.18;;
19560;SDS011;9927;47.792;10.616;2023-06-14T04:22:46;9.75;;;6.60;;
19560;SDS011;9927;47.792;10.616;2023-06-14T04:25:13;9.75;;;6.68;;
19560;SDS011;9927;47.792;10.616;2023-06-14T04:27:41;11.20;;;6.90;;
19560;SDS011;9927;47.792;10.616;2023-06-14T04:30:09;10.10;;;6.72;;
19560;SDS011;9927;47.792;10.616;2023-06-14T04:32:36;12.60;;;7.17;;
19560;SDS011;9927;47.792;10.616;2023-06-14T04:35:07;10.87;;;7.13;;
19560;SDS011;9927;47.792;10.616;2023-06-14T04:37:35;11.00;;;7.00;;
19560;SDS011;9927;47.792;10.616;2023-06-14T04:40:06;10.85;;;7.25;;
19560;SDS011;9927;47.792;10.616;2023-06-14T04:42:38;20.50;;;8.13;;
19560;SDS011;9927;47.792;10.616;2023-06-14T04:45:07;7.78;;;6.95;;
19560;SDS011;9927;47.792;10.616;2023-06-14T04:47:38;10.73;;;7.53;;
19560;SDS011;9927;47.792;10.616;2023-06-14T04:50:05;13.15;;;7.82;;
19560;SDS011;9927;47.792;10.616;2023-06-14T04:52:33;10.52;;;7.00;;
19560;SDS011;9927;47.792;10.616;2023-06-14T04:55:02;15.15;;;8.00;;
19560;SDS011;9927;47.792;10.616;2023-06-14T04:57:30;8.07;;;6.70;;
19560;SDS011;9927;47.792;10.616;2023-06-14T04:59:58;8.60;;;6.80;;
19560;SDS011;9927;47.792;10.616;2023-06-14T05:02:27;9.77;;;6.72;;
19560;SDS011;9927;47.792;10.616;2023-06-14T05:04:57;6.40;;;5.90;;
19560;SDS011;9927;47.792;10.616;2023-06-14T05:07:25;10.18;;;6.68;;
19560;SDS011;9927;47.792;10.616;2023-06-14T05:09:53;16.48;;;7.32;;
19560;SDS011;9927;47.792;10.616;2023-06-14T05:12:20;8.52;;;7.18;;
19560;SDS011;9927;47.792;10.616;2023-06-14T05:14:47;8.38;;;7.15;;
19560;SDS011;9927;47.792;10.616;2023-06-14T05:17:14;14.43;;;8.20;;
19560;SDS011;9927;47.792;10.616;2023-06-14T05:19:43;8.13;;;7.18;;
19560;SDS011;9927;47.792;10.616;2023-06-14T05:22:11;8.52;;;7.20;;
19560;SDS011;9927;47.792;10.616;2023-06-14T05:24:38;9.00;;;7.65;;
19560;SDS011;9927;47.792;10.616;2023-06-14T05:27:05;10.35;;;7.50;;
19560;SDS011;9927;47.792;10.616;2023-06-14T05:29:33;8.75;;;7.07;;
19560;SDS011;9927;47.792;10.616;2023-06-14T05:32:01;9.02;;;7.50;;
19560;SDS011;9927;47.792;10.616;2023-06-14T05:34:28;9.55;;;7.63;;
19560;SDS011;9927;47.792;10.616;2023-06-14T05:36:56;10.20;;;8.68;;
19560;SDS011;9927;47.792;10.616;2023-06-14T05:39:23;9.30;;;7.70;;
19560;SDS011;9927;47.792;10.616;2023-06-14T05:41:50;8.30;;;7.47;;
19560;SDS011;9927;47.792;10.616;2023-06-14T05:44:18;8.10;;;7.38;;
19560;SDS011;9927;47.792;10.616;2023-06-14T05:46:45;8.45;;;7.65;;
19560;SDS011;9927;47.792;10.616;2023-06-14T05:49:12;8.45;;;7.38;;
19560;SDS011;9927;47.792;10.616;2023-06-14T05:51:40;9.02;;;8.13;;
19560;SDS011;9927;47.792;10.616;2023-06-14T05:54:07;8.18;;;7.35;;
19560;SDS011;9927;47.792;10.616;2023-06-14T05:56:35;9.68;;;7.70;;
19560;SDS011;9927;47.792;10.616;2023-06-14T05:59:02;7.82;;;7.22;;
19560;SDS011;9927;47.792;10.616;2023-06-14T06:01:29;7.63;;;6.97;;
19560;SDS011;9927;47.792;10.616;2023-06-14T06:03:57;9.90;;;7.18;;
19560;SDS011;9927;47.792;10.616;2023-06-14T06:06:24;12.30;;;7.63;;
19560;SDS011;9927;47.792;10.616;2023-06-14T06:08:51;11.20;;;8.15;;
19560;SDS011;9927;47.792;10.616;2023-06-14T06:11:19;10.65;;;7.47;;
19560;SDS011;9927;47.792;10.616;2023-06-14T06:13:46;11.82;;;8.43;;
19560;SDS011;9927;47.792;10.616;2023-06-14T06:16:14;9.13;;;7.35;;
19560;SDS011;9927;47.792;10.616;2023-06-14T06:18:41;7.70;;;7.00;;
19560;SDS011;9927;47.792;10.616;2023-06-14T06:21:11;9.38;;;6.90;;
19560;SDS011;9927;47.792;10.616;2023-06-14T06:23:38;7.63;;;6.93;;
19560;SDS011;9927;47.792;10.616;2023-06-14T06:26:06;13.13;;;7.07;;
19560;SDS011;9927;47.792;10.616;2023-06-14T06:28:33;7.07;;;6.30;;
19560;SDS011;9927;47.792;10.616;2023-06-14T06:31:00;10.90;;;6.70;;
19560;SDS011;9927;47.792;10.616;2023-06-14T06:33:30;6.50;;;6.00;;
19560;SDS011;9927;47.792;10.616;2023-06-14T06:35:58;8.10;;;5.60;;
19560;SDS011;9927;47.792;10.616;2023-06-14T06:38:25;6.28;;;5.75;;
19560;SDS011;9927;47.792;10.616;2023-06-14T06:40:52;7.10;;;6.38;;
19560;SDS011;9927;47.792;10.616;2023-06-14T06:43:21;5.57;;;5.05;;
19560;SDS011;9927;47.792;10.616;2023-06-14T06:45:48;5.25;;;4.75;;
19560;SDS011;9927;47.792;10.616;2023-06-14T06:48:15;4.68;;;4.38;;
19560;SDS011;9927;47.792;10.616;2023-06-14T06:50:43;7.18;;;5.28;;
19560;SDS011;9927;47.792;10.616;2023-06-14T06:53:11;6.85;;;5.20;;
19560;SDS011;9927;47.792;10.616;2023-06-14T06:55:42;5.88;;;4.88;;
19560;SDS011;9927;47.792;10.616;2023-06-14T06:58:09;5.30;;;4.50;;
19560;SDS011;9927;47.792;10.616;2023-06-14T07:00:36;6.50;;;5.03;;
19560;SDS011;9927;47.792;10.616;2023-06-14T07:03:04;6.28;;;5.15;;
19560;SDS011;9927;47.792;10.616;2023-06-14T07:05:32;5.70;;;5.20;;
19560;SDS011;9927;47.792;10.616;2023-06-14T07:07:59;4.75;;;4.28;;
19560;SDS011;9927;47.792;10.616;2023-06-14T07:10:27;7.78;;;5.63;;
19560;SDS011;9927;47.792;10.616;2023-06-14T07:12:54;6.45;;;4.45;;
19560;SDS011;9927;47.792;10.616;2023-06-14T07:15:21;6.93;;;5.25;;
19560;SDS011;9927;47.792;10.616;2023-06-14T07:17:48;118.50;;;14.18;;
19560;SDS011;9927;47.792;10.616;2023-06-14T07:20:17;13.38;;;4.53;;
19560;SDS011;9927;47.792;10.616;2023-06-14T07:22:45;4.70;;;4.32;;
19560;SDS011;9927;47.792;10.616;2023-06-14T07:25:12;7.05;;;4.35;;
19560;SDS011;9927;47.792;10.616;2023-06-14T07:27:45;4.20;;;3.80;;
19560;SDS011;9927;47.792;10.616;2023-06-14T07:30:12;6.72;;;4.80;;
19560;SDS011;9927;47.792;10.616;2023-06-14T07:32:40;3.67;;;3.35;;
19560;SDS011;9927;47.792;10.616;2023-06-14T07:35:08;6.35;;;3.90;;
19560;SDS011;9927;47.792;10.616;2023-06-14T07:37:35;4.70;;;4.30;;
19560;SDS011;9927;47.792;10.616;2023-06-14T07:40:03;3.90;;;3.53;;
19560;SDS011;9927;47.792;10.616;2023-06-14T07:42:34;3.75;;;3.45;;
19560;SDS011;9927;47.792;10.616;2023-06-14T07:45:05;3.70;;;3.50;;
19560;SDS011;9927;47.792;10.616;2023-06-14T07:47:33;6.15;;;4.43;;
19560;SDS011;9927;47.792;10.616;2023-06-14T07:50:00;4.10;;;3.75;;
19560;SDS011;9927;47.792;10.616;2023-06-14T07:52:28;5.55;;;4.00;;
19560;SDS011;9927;47.792;10.616;2023-06-14T07:54:55;4.28;;;3.88;;
19560;SDS011;9927;47.792;10.616;2023-06-14T07:57:23;5.10;;;4.05;;
19560;SDS011;9927;47.792;10.616;2023-06-14T07:59:50;5.38;;;4.18;;
19560;SDS011;9927;47.792;10.616;2023-06-14T08:02:18;5.10;;;3.95;;
19560;SDS011;9927;47.792;10.616;2023-06-14T08:04:45;4.10;;;3.80;;
19560;SDS011;9927;47.792;10.616;2023-06-14T08:07:14;9.55;;;4.40;;
19560;SDS011;9927;47.792;10.616;2023-06-14T08:09:42;7.07;;;4.30;;
19560;SDS011;9927;47.792;10.616;2023-06-14T08:12:09;4.70;;;4.30;;
19560;SDS011;9927;47.792;10.616;2023-06-14T08:14:38;6.47;;;4.38;;
19560;SDS011;9927;47.792;10.616;2023-06-14T08:17:06;7.93;;;4.97;;
19560;SDS011;9927;47.792;10.616;2023-06-14T08:19:34;9.77;;;4.50;;
19560;SDS011;9927;47.792;10.616;2023-06-14T08:22:01;5.50;;;4.18;;
19560;SDS011;9927;47.792;10.616;2023-06-14T08:24:28;4.55;;;4.15;;
19560;SDS011;9927;47.792;10.616;2023-06-14T08:26:56;4.60;;;4.20;;
19560;SDS011;9927;47.792;10.616;2023-06-14T08:29:24;4.53;;;4.03;;
19560;SDS011;9927;47.792;10.616;2023-06-14T08:31:51;5.18;;;4.25;;
19560;SDS011;9927;47.792;10.616;2023-06-14T08:34:19;5.25;;;4.07;;
19560;SDS011;9927;47.792;10.616;2023-06-14T08:36:46;4.05;;;3.75;;
19560;SDS011;9927;47.792;10.616;2023-06-14T08:39:13;4.30;;;3.95;;
19560;SDS011;9927;47.792;10.616;2023-06-14T08:41:41;4.20;;;3.90;;
19560;SDS011;9927;47.792;10.616;2023-06-14T08:44:12;4.57;;;4.18;;
19560;SDS011;9927;47.792;10.616;2023-06-14T08:46:39;8.23;;;5.20;;
19560;SDS011;9927;47.792;10.616;2023-06-14T08:49:08;4.07;;;3.70;;
19560;SDS011;9927;47.792;10.616;2023-06-14T08:51:38;4.80;;;4.13;;
19560;SDS011;9927;47.792;10.616;2023-06-14T08:54:07;4.47;;;4.07;;
19560;SDS011;9927;47.792;10.616;2023-06-14T08:56:35;5.22;;;4.45;;
19560;SDS011;9927;47.792;10.616;2023-06-14T08:59:04;8.32;;;4.65;;
19560;SDS011;9927;47.792;10.616;2023-06-14T09:01:33;4.80;;;4.32;;
19560;SDS011;9927;47.792;10.616;2023-06-14T09:04:02;5.97;;;4.75;;
19560;SDS011;9927;47.792;10.616;2023-06-14T09:06:32;4.93;;;4.53;;
19560;SDS011;9927;47.792;10.616;2023-06-14T09:08:59;5.72;;;5.18;;
19560;SDS011;9927;47.792;10.616;2023-06-14T09:11:27;5.65;;;4.82;;
19560;SDS011;9927;47.792;10.616;2023-06-14T09:13:55;7.72;;;4.75;;
19560;SDS011;9927;47.792;10.616;2023-06-14T09:16:25;5.35;;;4.82;;
19560;SDS011;9927;47.792;10.616;2023-06-14T09:18:53;6.57;;;5.22;;
19560;SDS011;9927;47.792;10.616;2023-06-14T09:21:20;6.25;;;5.00;;
19560;SDS011;9927;47.792;10.616;2023-06-14T09:23:48;8.35;;;5.00;;
19560;SDS011;9927;47.792;10.616;2023-06-14T09:26:18;5.47;;;4.95;;
19560;SDS011;9927;47.792;10.616;2023-06-14T09:28:49;6.10;;;5.50;;
19560;SDS011;9927;47.792;10.616;2023-06-14T09:31:18;5.72;;;4.93;;
19560;SDS011;9927;47.792;10.616;2023-06-14T09:33:48;6.13;;;5.50;;
19560;SDS011;9927;47.792;10.616;2023-06-14T09:36:23;6.10;;;4.68;;
19560;SDS011;9927;47.792;10.616;2023-06-14T09:38:55;7.72;;;5.55;;
19560;SDS011;9927;47.792;10.616;2023-06-14T09:41:33;6.60;;;5.50;;
19560;SDS011;9927;47.792;10.616;2023-06-14T09:44:03;6.75;;;5.35;;
19560;SDS011;9927;47.792;10.616;2023-06-14T09:46:36;5.32;;;4.90;;
19560;SDS011;9927;47.792;10.616;2023-06-14T09:49:04;10.75;;;5.18;;
19560;SDS011;9927;47.792;10.616;2023-06-14T09:51:32;7.30;;;5.38;;
19560;SDS011;9927;47.792;10.616;2023-06-14T09:54:02;7.00;;;5.13;;
19560;SDS011;9927;47.792;10.616;2023-06-14T09:56:42;6.43;;;5.18;;
19560;SDS011;9927;47.792;10.616;2023-06-14T09:59:12;7.55;;;5.15;;
19560;SDS011;9927;47.792;10.616;2023-06-14T10:01:43;7.82;;;5.65;;
19560;SDS011;9927;47.792;10.616;2023-06-14T10:04:11;7.55;;;5.20;;
19560;SDS011;9927;47.792;10.616;2023-06-14T10:06:40;5.50;;;4.75;;
19560;SDS011;9927;47.792;10.616;2023-06-14T10:09:11;7.03;;;5.60;;
19560;SDS011;9927;47.792;10.616;2023-06-14T10:11:40;5.13;;;4.72;;
19560;SDS011;9927;47.792;10.616;2023-06-14T10:14:11;7.18;;;5.03;;
19560;SDS011;9927;47.792;10.616;2023-06-14T10:19:28;9.50;;;5.38;;
19560;SDS011;9927;47.792;10.616;2023-06-14T10:22:05;6.18;;;5.20;;
19560;SDS011;9927;47.792;10.616;2023-06-14T10:24:43;6.30;;;5.10;;
19560;SDS011;9927;47.792;10.616;2023-06-14T10:27:14;6.95;;;5.22;;
19560;SDS011;9927;47.792;10.616;2023-06-14T10:32:23;5.32;;;4.55;;
19560;SDS011;9927;47.792;10.616;2023-06-14T10:34:59;6.47;;;5.00;;
19560;SDS011;9927;47.792;10.616;2023-06-14T10:37:27;8.13;;;5.28;;
19560;SDS011;9927;47.792;10.616;2023-06-14T10:39:54;7.18;;;5.93;;
19560;SDS011;9927;47.792;10.616;2023-06-14T10:42:23;6.82;;;5.70;;
19560;SDS011;9927;47.792;10.616;2023-06-14T10:44:58;5.45;;;4.70;;
19560;SDS011;9927;47.792;10.616;2023-06-14T10:47:32;8.95;;;5.78;;
19560;SDS011;9927;47.792;10.616;2023-06-14T10:50:03;7.88;;;5.38;;
19560;SDS011;9927;47.792;10.616;2023-06-14T10:52:33;6.35;;;4.68;;
19560;SDS011;9927;47.792;10.616;2023-06-14T10:57:33;8.50;;;5.45;;
19560;SDS011;9927;47.792;10.616;2023-06-14T11:00:16;5.45;;;4.53;;
19560;SDS011;9927;47.792;10.616;2023-06-14T11:05:58;8.65;;;5.57;;
19560;SDS011;9927;47.792;10.616;2023-06-14T11:11:12;6.45;;;5.20;;
19560;SDS011;9927;47.792;10.616;2023-06-14T11:13:46;5.57;;;4.65;;
19560;SDS011;9927;47.792;10.616;2023-06-14T11:16:14;6.20;;;4.82;;
19560;SDS011;9927;47.792;10.616;2023-06-14T11:18:43;6.82;;;5.53;;
19560;SDS011;9927;47.792;10.616;2023-06-14T11:21:15;6.22;;;5.05;;
19560;SDS011;9927;47.792;10.616;2023-06-14T11:23:51;6.07;;;5.00;;
19560;SDS011;9927;47.792;10.616;2023-06-14T11:26:28;6.15;;;4.65;;
19560;SDS011;9927;47.792;10.616;2023-06-14T11:28:58;5.03;;;4.53;;
19560;SDS011;9927;47.792;10.616;2023-06-14T11:31:26;5.25;;;4.75;;
19560;SDS011;9927;47.792;10.616;2023-06-14T11:33:56;5.90;;;4.78;;
19560;SDS011;9927;47.792;10.616;2023-06-14T11:36:28;7.93;;;5.10;;
19560;SDS011;9927;47.792;10.616;2023-06-14T11:38:58;6.65;;;5.40;;
19560;SDS011;9927;47.792;10.616;2023-06-14T11:41:36;6.30;;;4.72;;
19560;SDS011;9927;47.792;10.616;2023-06-14T11:44:09;6.35;;;5.05;;
19560;SDS011;9927;47.792;10.616;2023-06-14T11:46:37;6.80;;;4.70;;
19560;SDS011;9927;47.792;10.616;2023-06-14T11:49:04;6.18;;;5.10;;
19560;SDS011;9927;47.792;10.616;2023-06-14T11:51:34;5.45;;;4.85;;
19560;SDS011;9927;47.792;10.616;2023-06-14T11:54:02;8.15;;;5.15;;
19560;SDS011;9927;47.792;10.616;2023-06-14T11:56:32;6.10;;;4.75;;
19560;SDS011;9927;47.792;10.616;2023-06-14T11:58:59;5.53;;;4.97;;
19560;SDS011;9927;47.792;10.616;2023-06-14T12:01:31;7.07;;;5.00;;
19560;SDS011;9927;47.792;10.616;2023-06-14T12:04:03;7.57;;;4.60;;
19560;SDS011;9927;47.792;10.616;2023-06-14T12:06:31;5.82;;;4.88;;
19560;SDS011;9927;47.792;10.616;2023-06-14T12:09:07;6.28;;;5.55;;
19560;SDS011;9927;47.792;10.616;2023-06-14T12:11:39;5.90;;;4.95;;
19560;SDS011;9927;47.792;10.616;2023-06-14T12:14:08;6.95;;;5.22;;
19560;SDS011;9927;47.792;10.616;2023-06-14T12:16:37;7.72;;;5.20;;
19560;SDS011;9927;47.792;10.616;2023-06-14T12:19:11;6.60;;;5.50;;
19560;SDS011;9927;47.792;10.616;2023-06-14T12:21:40;6.72;;;4.40;;
19560;SDS011;9927;47.792;10.616;2023-06-14T12:24:09;12.30;;;5.07;;
19560;SDS011;9927;47.792;10.616;2023-06-14T12:26:39;6.68;;;5.03;;
19560;SDS011;9927;47.792;10.616;2023-06-14T12:29:07;7.18;;;4.90;;
19560;SDS011;9927;47.792;10.616;2023-06-14T12:31:35;5.32;;;4.65;;
19560;SDS011;9927;47.792;10.616;2023-06-14T12:34:03;7.10;;;4.88;;
19560;SDS011;9927;47.792;10.616;2023-06-14T12:36:30;7.20;;;5.10;;
19560;SDS011;9927;47.792;10.616;2023-06-14T12:38:58;9.60;;;5.20;;
19560;SDS011;9927;47.792;10.616;2023-06-14T12:41:26;5.65;;;4.15;;
19560;SDS011;9927;47.792;10.616;2023-06-14T12:43:53;6.85;;;5.32;;
19560;SDS011;9927;47.792;10.616;2023-06-14T12:46:21;5.00;;;4.50;;
19560;SDS011;9927;47.792;10.616;2023-06-14T12:48:48;5.90;;;4.95;;
19560;SDS011;9927;47.792;10.616;2023-06-14T12:51:16;5.13;;;4.60;;
19560;SDS011;9927;47.792;10.616;2023-06-14T12:53:43;5.25;;;4.50;;
19560;SDS011;9927;47.792;10.616;2023-06-14T12:56:10;5.63;;;4.80;;
19560;SDS011;9927;47.792;10.616;2023-06-14T12:58:38;5.60;;;4.43;;
19560;SDS011;9927;47.792;10.616;2023-06-14T13:01:05;7.68;;;4.72;;
19560;SDS011;9927;47.792;10.616;2023-06-14T13:03:32;6.72;;;4.95;;
19560;SDS011;9927;47.792;10.616;2023-06-14T13:06:01;6.50;;;5.00;;
19560;SDS011;9927;47.792;10.616;2023-06-14T13:08:30;8.35;;;4.90;;
19560;SDS011;9927;47.792;10.616;2023-06-14T13:10:57;4.53;;;4.13;;
19560;SDS011;9927;47.792;10.616;2023-06-14T13:13:25;6.95;;;4.85;;
19560;SDS011;9927;47.792;10.616;2023-06-14T13:15:52;5.55;;;4.78;;
19560;SDS011;9927;47.792;10.616;2023-06-14T13:18:19;7.28;;;4.55;;
19560;SDS011;9927;47.792;10.616;2023-06-14T13:20:46;5.43;;;4.40;;
19560;SDS011;9927;47.792;10.616;2023-06-14T13:23:15;7.03;;;4.90;;
19560;SDS011;9927;47.792;10.616;2023-06-14T13:25:43;5.85;;;4.38;;
19560;SDS011;9927;47.792;10.616;2023-06-14T13:28:10;5.60;;;4.57;;
19560;SDS011;9927;47.792;10.616;2023-06-14T13:30:38;8.98;;;5.95;;
19560;SDS011;9927;47.792;10.616;2023-06-14T13:33:06;5.97;;;4.35;;
19560;SDS011;9927;47.792;10.616;2023-06-14T13:35:35;4.85;;;4.38;;
19560;SDS011;9927;47.792;10.616;2023-06-14T13:38:02;5.22;;;4.70;;
19560;SDS011;9927;47.792;10.616;2023-06-14T13:40:30;6.97;;;5.30;;
19560;SDS011;9927;47.792;10.616;2023-06-14T13:42:57;7.03;;;4.43;;
19560;SDS011;9927;47.792;10.616;2023-06-14T13:45:24;7.22;;;4.82;;
19560;SDS011;9927;47.792;10.616;2023-06-14T13:47:51;5.70;;;4.80;;
19560;SDS011;9927;47.792;10.616;2023-06-14T13:50:19;5.07;;;4.57;;
19560;SDS011;9927;47.792;10.616;2023-06-14T13:52:46;4.80;;;4.40;;
19560;SDS011;9927;47.792;10.616;2023-06-14T13:55:17;4.22;;;3.92;;
19560;SDS011;9927;47.792;10.616;2023-06-14T13:57:44;14.23;;;6.85;;
19560;SDS011;9927;47.792;10.616;2023-06-14T14:00:12;5.88;;;4.70;;
19560;SDS011;9927;47.792;10.616;2023-06-14T14:02:40;4.82;;;4.43;;
19560;SDS011;9927;47.792;10.616;2023-06-14T14:05:08;6.10;;;4.75;;
19560;SDS011;9927;47.792;10.616;2023-06-14T14:07:36;4.95;;;4.30;;
19560;SDS011;9927;47.792;10.616;2023-06-14T14:10:04;6.10;;;4.60;;
19560;SDS011;9927;47.792;10.616;2023-06-14T14:12:32;5.25;;;4.38;;
19560;SDS011;9927;47.792;10.616;2023-06-14T14:15:06;5.35;;;4.40;;
19560;SDS011;9927;47.792;10.616;2023-06-14T14:17:40;6.47;;;4.60;;
19560;SDS011;9927;47.792;10.616;2023-06-14T14:20:08;5.72;;;4.85;;
19560;SDS011;9927;47.792;10.616;2023-06-14T14:22:39;5.10;;;4.60;;
19560;SDS011;9927;47.792;10.616;2023-06-14T14:25:11;6.50;;;5.78;;
19560;SDS011;9927;47.792;10.616;2023-06-14T14:27:39;4.18;;;3.88;;
19560;SDS011;9927;47.792;10.616;2023-06-14T14:30:07;6.38;;;4.75;;
19560;SDS011;9927;47.792;10.616;2023-06-14T14:32:35;5.30;;;4.80;;
19560;SDS011;9927;47.792;10.616;2023-06-14T14:35:02;8.57;;;4.85;;
19560;SDS011;9927;47.792;10.616;2023-06-14T14:37:30;6.88;;;4.47;;
19560;SDS011;9927;47.792;10.616;2023-06-14T14:39:57;7.28;;;4.90;;
19560;SDS011;9927;47.792;10.616;2023-06-14T14:42:24;7.35;;;5.25;;
19560;SDS011;9927;47.792;10.616;2023-06-14T14:44:53;7.72;;;5.72;;
19560;SDS011;9927;47.792;10.616;2023-06-14T14:47:20;7.32;;;5.15;;
19560;SDS011;9927;47.792;10.616;2023-06-14T14:49:47;5.63;;;4.22;;
19560;SDS011;9927;47.792;10.616;2023-06-14T14:52:14;7.45;;;4.90;;
19560;SDS011;9927;47.792;10.616;2023-06-14T14:54:50;5.95;;;5.03;;
19560;SDS011;9927;47.792;10.616;2023-06-14T14:57:18;6.05;;;4.63;;
19560;SDS011;9927;47.792;10.616;2023-06-14T14:59:45;5.30;;;4.80;;
19560;SDS011;9927;47.792;10.616;2023-06-14T15:02:12;6.15;;;4.80;;
19560;SDS011;9927;47.792;10.616;2023-06-14T15:04:39;8.65;;;4.80;;
19560;SDS011;9927;47.792;10.616;2023-06-14T15:07:07;5.30;;;4.80;;
19560;SDS011;9927;47.792;10.616;2023-06-14T15:09:34;5.30;;;4.70;;
19560;SDS011;9927;47.792;10.616;2023-06-14T15:12:01;6.20;;;4.75;;
19560;SDS011;9927;47.792;10.616;2023-06-14T15:14:29;5.43;;;4.93;;